Nearby METAR Reports

 

KSFO - San Francisco, California, USA
Distance from station: NNW 8km
Updated: Thu, 17-Jan-2019 6:56pm PST
Mostly cloudy
Mostly cloudy
 Wind from SW
Wind: SW 10 mph , 17 km/h
Temperature: 59°F , 15°C
Dew Point: 46°F , 8°C
Humidity: 63%
Barometer: 30.14 inHg , 1020.7 hPa
Clouds: Mostly cloudy
Visibility: 10 miles , 16 km
Cloud details: Few Clouds 2000 ft
Mostly cloudy 15000 ft
2019/01/18 02:56 KSFO 180256Z 23009KT 10SM FEW020 BKN150 15/08 A3014 RMK AO2 SLP205 T01500083 53018
KSQL - San Carlos Airpo, California, USA
Distance from station: ESE 8km
Updated: Thu, 17-Jan-2019 6:47pm PST
Overcast
Overcast
 Wind from WSW
Wind: WSW 7 mph , 11 km/h
Temperature: 55°F , 13°C
Dew Point: 50°F , 10°C
Humidity: 82%
Barometer: 30.15 inHg , 1021 hPa
Clouds: Overcast
Visibility: 8 miles , 13 km
Cloud details: Mostly cloudy 2100 ft
Overcast 3000 ft
2019/01/18 02:47 KSQL 180247Z 25006KT 8SM BKN021 OVC030 13/10 A3015
 
KHAF - Half Moon Bay, California, USA
Distance from station: WSW 15km
Updated: Thu, 17-Jan-2019 7:15pm PST
Mist, Overcast
Mist, Overcast
 Wind from SW
Wind: SW 7 mph , 11 km/h
Temperature: 55°F , 13°C
Dew Point: 54°F , 12°C
Humidity: 94%
Barometer: 30.16 inHg , 1021.3 hPa
Summary: Mist
Clouds: Overcast
Visibility: 3 miles , 5 km
Cloud details: Mostly cloudy 200 ft
Mostly cloudy 3100 ft
Overcast 3800 ft
2019/01/18 03:15 KHAF 180315Z AUTO 22006KT 3SM BR BKN002 BKN031 OVC038 13/12 A3016 RMK AO2
KOAK - Oakland, California, USA
Distance from station: NNE 21km
Updated: Thu, 17-Jan-2019 6:53pm PST
Mostly cloudy
Mostly cloudy
 Wind from WSW
Wind: WSW 10 mph , 17 km/h
Temperature: 55°F , 13°C
Dew Point: 50°F , 10°C
Humidity: 82%
Barometer: 30.15 inHg , 1021 hPa
Clouds: Mostly cloudy
Visibility: 10 miles , 16 km
Cloud details: Partly cloudy 3300 ft
Mostly cloudy 8000 ft
Mostly cloudy 18000 ft
2019/01/18 02:53 KOAK 180253Z 24009KT 10SM SCT033 BKN080 BKN180 13/10 A3015 RMK AO2 SLP208 T01330100 53018
 
KPAO - Palo Alto, California, USA
Distance from station: ESE 21km
Updated: Thu, 17-Jan-2019 6:47pm PST
Mostly cloudy
Mostly cloudy
 Wind from calm
Wind: Calm
Temperature: 55°F , 13°C
Dew Point: 48°F , 9°C
Humidity: 77%
Barometer: 30.16 inHg , 1021.3 hPa
Clouds: Mostly cloudy
Visibility: 10 miles , 16 km
Cloud details: Partly cloudy 4000 ft
Mostly cloudy 12000 ft
2019/01/18 02:47 KPAO 180247Z 00000KT 10SM SCT040 BKN120 13/09 A3016
KHWD - Hayward, California, USA
Distance from station: NE 23km
Updated: Thu, 17-Jan-2019 6:54pm PST
Mostly cloudy
Mostly cloudy
 Wind from SSW
Wind: SSW 3 mph , 6 km/h
Temperature: 55°F , 13°C
Dew Point: 48°F , 9°C
Humidity: 77%
Barometer: 30.15 inHg , 1021 hPa
Clouds: Mostly cloudy
Visibility: 10 miles , 16 km
Cloud details: Mostly cloudy 5500 ft
2019/01/18 02:54 KHWD 180254Z 20003KT 10SM BKN055 13/09 A3015 RMK AO2 SLP219 T01330089 53022
 
KNUQ - Moffett Nas/Mtn, California, USA
Distance from station: ESE 30km
Updated: Thu, 17-Jan-2019 6:56pm PST
Overcast
Overcast
 Wind from calm
Wind: Calm
Temperature: 57°F , 14°C
Dew Point: 48°F , 9°C
Humidity: 72%
Barometer: 30.17 inHg , 1021.7 hPa
Clouds: Overcast
Visibility: 10 miles , 16 km
Cloud details: Partly cloudy 3700 ft
Mostly cloudy 4700 ft
Overcast 6500 ft
2019/01/18 02:56 KNUQ 180256Z 00000KT 10SM SCT037 BKN047 OVC065 14/09 A3017 RMK AO2 SLP217 T01390089 53022
KSJC - San Jose, California, USA
Distance from station: ESE 42km
Updated: Thu, 17-Jan-2019 6:53pm PST
Overcast
Overcast
 Wind from calm
Wind: Calm
Temperature: 57°F , 14°C
Dew Point: 48°F , 9°C
Humidity: 72%
Barometer: 30.16 inHg , 1021.3 hPa
Clouds: Overcast
Visibility: 10 miles , 16 km
Cloud details: Few Clouds 100 ft
Mostly cloudy 6500 ft
Overcast 16000 ft
2019/01/18 02:53 KSJC 180253Z 00000KT 10SM FEW001 BKN065 OVC160 14/09 A3016 RMK AO2 SLP212 60000 T01440094 53024
 
KLVK - Livermore, California, USA
Distance from station: ENE 49km
Updated: Thu, 17-Jan-2019 6:53pm PST
Overcast
Overcast
 Wind from SW
Wind: SW 3 mph , 6 km/h
Temperature: 54°F , 12°C
Dew Point: 46°F , 8°C
Humidity: 77%
Barometer: 30.14 inHg , 1020.7 hPa
Clouds: Overcast
Visibility: 9 miles , 14 km
Cloud details: Partly cloudy 3000 ft
Mostly cloudy 3400 ft
Overcast 4500 ft
2019/01/18 02:53 KLVK 180253Z 22003KT 9SM SCT030 BKN034 OVC045 12/08 A3014 RMK AO2 SLP206 T01220083 53023
KRHV - San Jose/Reid, California, USA
Distance from station: ESE 53km
Updated: Wed, 16-Jan-2019 3:50pm PST
NOT Current
Overcast
Overcast
 Wind from SE
Wind: SE 21 mph , 33 km/h
Temperature: 59°F , 15°C
Dew Point: 54°F , 12°C
Humidity: 82%
Barometer: 29.83 inHg , 1010.2 hPa
Clouds: Overcast
Visibility: 2 miles , 3 km
Cloud details: Few Clouds 2000 ft
Mostly cloudy 4000 ft
Overcast 8000 ft
2019/01/16 23:50 KRHV 162350Z 13018KT 2SM FEW020 BKN040 OVC080 15/12 A2983 RA
 
KCCR - Concord, California, USA
Distance from station: NNE 56km
Updated: Thu, 17-Jan-2019 6:53pm PST
Partly cloudy
Partly cloudy
 Wind from SW
Wind: SW 10 mph , 17 km/h
Temperature: 55°F , 13°C
Dew Point: 46°F , 8°C
Humidity: 72%
Barometer: 30.14 inHg , 1020.7 hPa
Clouds: Partly cloudy
Visibility: 10 miles , 16 km
Cloud details: Partly cloudy 3700 ft
2019/01/18 02:53 KCCR 180253Z 22009KT 10SM SCT037 13/08 A3014 RMK AO2 SLP192 T01330083 53024
KDVO - Novato/Gnoss Fld, California, USA
Distance from station: NNW 70km
Updated: Thu, 17-Jan-2019 7:15pm PST
Mostly cloudy
Mostly cloudy
 Wind from W
Wind: W 8 mph , 13 km/h
Temperature: 55°F , 13°C
Dew Point: 50°F , 10°C
Humidity: 82%
Barometer: 30.15 inHg , 1021 hPa
Clouds: Mostly cloudy
Visibility: 9 miles , 14 km
Cloud details: Mostly cloudy 2000 ft
Mostly cloudy 2500 ft
Mostly cloudy 3200 ft
2019/01/18 03:15 KDVO 180315Z AUTO 26007KT 9SM BKN020 BKN025 BKN032 13/10 A3015 RMK AO2
 
KAPC - Napa, California, USA
Distance from station: N 73km
Updated: Thu, 17-Jan-2019 6:54pm PST
Overcast
Overcast
 
Temperature: 52°F , 11°C
Dew Point: 48°F , 9°C
Humidity: 88%
Barometer: 30.13 inHg , 1020.3 hPa
Clouds: Overcast
Visibility: 10 miles , 16 km
Cloud details: Few Clouds 2700 ft
Mostly cloudy 3400 ft
Overcast 4500 ft
2019/01/18 02:54 KAPC 180254Z 10SM FEW027 BKN034 OVC045 11/09 A3013 RMK AO2 SLP194 T01060089 53025